createdAt,value
2018-02-12T00:01:45.350Z,90.00
2018-02-12T00:04:11.296Z,90.00
2018-02-12T00:06:37.373Z,90.20
2018-02-12T00:09:04.102Z,90.10
2018-02-12T00:11:30.766Z,90.20
2018-02-12T00:13:56.717Z,90.20
2018-02-12T00:16:22.703Z,90.00
2018-02-12T00:18:48.822Z,90.10
2018-02-12T00:21:14.722Z,89.90
2018-02-12T00:23:40.674Z,89.80
2018-02-12T00:26:06.680Z,89.60
2018-02-12T00:28:33.371Z,89.20
2018-02-12T00:30:59.395Z,89.20
2018-02-12T00:33:25.364Z,89.00
2018-02-12T00:35:52.108Z,88.50
2018-02-12T00:38:18.946Z,88.30
2018-02-12T00:40:45.636Z,88.00
2018-02-12T00:43:11.730Z,88.00
2018-02-12T00:45:37.672Z,87.70
2018-02-12T00:48:03.600Z,87.80
2018-02-12T00:50:29.583Z,87.90
2018-02-12T00:52:56.255Z,88.10
2018-02-12T00:55:22.335Z,88.10
2018-02-12T00:57:49.093Z,89.00
2018-02-12T01:00:15.060Z,89.00
2018-02-12T01:02:40.998Z,89.60
2018-02-12T01:05:06.963Z,90.00
2018-02-12T01:07:32.936Z,90.40
2018-02-12T01:09:58.867Z,90.10
2018-02-12T01:12:24.823Z,90.00
2018-02-12T01:14:50.767Z,89.90
2018-02-12T01:17:16.853Z,89.90
2018-02-12T01:19:43.527Z,89.70
2018-02-12T01:22:09.467Z,89.70
2018-02-12T01:24:35.450Z,89.80
2018-02-12T01:27:01.397Z,89.60
2018-02-12T01:29:27.468Z,89.60
2018-02-12T01:31:53.401Z,89.60
2018-02-12T01:34:20.131Z,89.10
2018-02-12T01:36:46.211Z,89.80
2018-02-12T01:39:12.183Z,89.40
2018-02-12T01:41:38.867Z,88.30
2018-02-12T01:44:04.803Z,88.20
2018-02-12T01:46:30.894Z,88.30
2018-02-12T01:48:56.830Z,88.40
2018-02-12T01:51:22.784Z,88.20
2018-02-12T01:53:48.711Z,88.20
2018-02-12T01:56:14.672Z,88.50
2018-02-12T01:58:41.359Z,89.00
2018-02-12T02:01:07.425Z,89.10
2018-02-12T02:03:34.102Z,88.90
2018-02-12T02:06:00.052Z,88.90
2018-02-12T02:08:26.044Z,89.00
2018-02-12T02:10:51.984Z,88.90
2018-02-12T02:13:17.949Z,89.50
2018-02-12T02:15:44.624Z,89.60
2018-02-12T02:18:10.592Z,89.50
2018-02-12T02:20:36.515Z,89.90
2018-02-12T02:23:02.624Z,89.60
2018-02-12T02:25:28.582Z,89.60
2018-02-12T02:27:55.278Z,89.70
2018-02-12T02:30:21.252Z,89.70
2018-02-12T02:32:47.195Z,89.30
2018-02-12T02:35:13.146Z,89.10
2018-02-12T02:37:39.234Z,88.30
2018-02-12T02:40:05.331Z,88.00
2018-02-12T02:42:31.279Z,87.30
2018-02-12T02:44:57.227Z,86.60
2018-02-12T02:47:23.207Z,86.50
2018-02-12T02:49:49.894Z,85.60
2018-02-12T02:52:15.864Z,85.60
2018-02-12T02:54:42.536Z,85.50
2018-02-12T02:57:08.621Z,85.50
2018-02-12T02:59:35.318Z,85.30
2018-02-12T03:02:01.285Z,85.30
2018-02-12T03:04:27.247Z,84.10
2018-02-12T03:06:53.188Z,84.50
2018-02-12T03:09:19.175Z,85.30
2018-02-12T03:11:45.110Z,85.50
2018-02-12T03:14:11.189Z,85.50
2018-02-12T03:16:37.874Z,85.20
2018-02-12T03:19:03.831Z,85.20
2018-02-12T03:21:29.781Z,85.70
2018-02-12T03:23:56.464Z,86.30
2018-02-12T03:26:22.390Z,85.60
2018-02-12T03:28:48.628Z,85.70
2018-02-12T03:31:14.551Z,85.00
2018-02-12T03:33:40.483Z,84.30
2018-02-12T03:36:06.475Z,84.40
2018-02-12T03:38:32.462Z,83.80
2018-02-12T03:40:59.159Z,83.70
2018-02-12T03:43:25.100Z,83.70
2018-02-12T03:45:51.060Z,83.80
2018-02-12T03:48:16.996Z,83.40
2018-02-12T03:50:43.103Z,83.30
2018-02-12T03:53:09.075Z,82.20
2018-02-12T03:55:35.018Z,82.30
2018-02-12T03:58:01.751Z,81.60
2018-02-12T04:00:27.689Z,81.60
2018-02-12T04:02:54.471Z,81.60
2018-02-12T04:05:20.425Z,81.60
2018-02-12T04:07:46.512Z,81.40
2018-02-12T04:10:12.449Z,81.60
2018-02-12T04:12:38.392Z,81.80
2018-02-12T04:15:04.391Z,81.50
2018-02-12T04:17:30.320Z,81.40
2018-02-12T04:19:56.268Z,81.40
2018-02-12T04:22:22.227Z,81.10
2018-02-12T04:24:48.242Z,81.20
2018-02-12T04:27:14.913Z,80.50
2018-02-12T04:29:40.870Z,80.40
2018-02-12T04:32:06.948Z,80.00
2018-02-12T04:34:32.900Z,80.60
2018-02-12T04:36:59.015Z,79.90
2018-02-12T04:39:24.948Z,79.70
2018-02-12T04:41:50.947Z,79.90
2018-02-12T04:44:16.906Z,79.80
2018-02-12T04:46:44.479Z,79.90
2018-02-12T04:49:11.173Z,79.60
2018-02-12T04:51:37.115Z,79.50
2018-02-12T04:54:03.086Z,79.80
2018-02-12T04:56:29.018Z,78.70
2018-02-12T04:58:54.980Z,78.90
2018-02-12T05:01:20.941Z,79.50
2018-02-12T05:03:47.750Z,79.20
2018-02-12T05:06:13.716Z,79.20
2018-02-12T05:08:39.639Z,79.20
2018-02-12T05:11:05.591Z,78.90
2018-02-12T05:13:31.531Z,78.50
2018-02-12T05:15:57.545Z,78.50
2018-02-12T05:18:23.475Z,78.40
2018-02-12T05:20:49.419Z,78.50
2018-02-12T05:23:16.128Z,78.80
2018-02-12T05:25:42.075Z,78.80
2018-02-12T05:28:08.043Z,78.50
2018-02-12T05:30:34.122Z,79.10
2018-02-12T05:33:00.199Z,79.30
2018-02-12T05:35:26.157Z,78.90
2018-02-12T05:37:52.271Z,78.90
2018-02-12T05:40:18.229Z,78.80
2018-02-12T05:42:44.907Z,77.60
2018-02-12T05:45:10.885Z,77.60
2018-02-12T05:47:37.548Z,77.70
2018-02-12T05:50:03.515Z,77.70
2018-02-12T05:52:29.468Z,76.80
2018-02-12T05:54:56.312Z,77.00
2018-02-12T05:57:22.999Z,77.60
2018-02-12T05:59:48.987Z,77.60
2018-02-12T06:02:14.940Z,77.80
2018-02-12T06:04:40.909Z,77.50
2018-02-12T06:07:06.996Z,77.60
2018-02-12T06:09:32.944Z,77.40
2018-02-12T06:11:58.926Z,77.30
2018-02-12T06:14:24.888Z,77.30
2018-02-12T06:16:50.848Z,77.20
2018-02-12T06:19:16.799Z,77.60
2018-02-12T06:21:42.734Z,77.50
2018-02-12T06:24:08.805Z,77.40
2018-02-12T06:26:34.735Z,77.50
2018-02-12T06:29:00.987Z,77.70
2018-02-12T06:31:26.964Z,77.10
2018-02-12T06:33:53.713Z,76.90
2018-02-12T06:36:20.414Z,77.40
2018-02-12T06:38:47.299Z,77.40
2018-02-12T06:41:13.225Z,77.60
2018-02-12T06:43:39.195Z,78.30
2018-02-12T06:46:05.128Z,78.90
2018-02-12T06:48:31.121Z,78.90
2018-02-12T06:50:57.105Z,78.90
2018-02-12T06:53:23.779Z,79.80
2018-02-12T06:55:49.715Z,79.80
2018-02-12T06:58:15.811Z,79.90
2018-02-12T07:00:41.755Z,80.20
2018-02-12T07:03:07.767Z,80.10
2018-02-12T07:05:33.720Z,80.60
2018-02-12T07:07:59.719Z,80.70
2018-02-12T07:10:25.689Z,80.10
2018-02-12T07:12:51.662Z,79.90
2018-02-12T07:15:17.683Z,80.00
2018-02-12T07:17:43.647Z,80.40
2018-02-12T07:20:09.750Z,80.60
2018-02-12T07:22:35.679Z,80.40
2018-02-12T07:25:01.623Z,80.60
2018-02-12T07:27:27.632Z,80.90
2018-02-12T07:29:53.595Z,80.50
2018-02-12T07:32:19.619Z,80.40
2018-02-12T07:34:45.571Z,80.40
2018-02-12T07:37:11.672Z,80.50
2018-02-12T07:39:37.638Z,80.40
2018-02-12T07:42:03.626Z,80.70
2018-02-12T07:44:29.591Z,80.70
2018-02-12T07:46:55.532Z,80.80
2018-02-12T07:49:22.371Z,80.70
2018-02-12T07:51:49.050Z,81.20
2018-02-12T07:54:15.063Z,81.20
2018-02-12T07:56:41.015Z,81.50
2018-02-12T07:59:06.999Z,81.80
2018-02-12T08:01:32.964Z,81.80
2018-02-12T08:03:58.934Z,82.20
2018-02-12T08:06:25.643Z,81.50
2018-02-12T08:08:51.688Z,81.50
2018-02-12T08:11:18.528Z,81.10
2018-02-12T08:13:45.240Z,80.70
2018-02-12T08:16:11.197Z,80.70
2018-02-12T08:18:37.922Z,80.10
2018-02-12T08:21:04.014Z,80.10
2018-02-12T08:23:29.961Z,80.70
2018-02-12T08:25:55.911Z,80.80
2018-02-12T08:28:21.943Z,81.00
2018-02-12T08:30:47.887Z,80.00
2018-02-12T08:33:13.848Z,79.60
2018-02-12T08:35:39.839Z,79.20
2018-02-12T08:38:05.994Z,80.00
2018-02-12T08:40:31.967Z,79.70
2018-02-12T08:42:58.020Z,79.90
2018-02-12T08:45:23.980Z,79.00
2018-02-12T08:47:50.673Z,78.10
2018-02-12T08:50:16.641Z,78.10
2018-02-12T08:52:43.323Z,76.30
2018-02-12T08:55:09.415Z,76.20
2018-02-12T08:57:36.103Z,76.40
2018-02-12T09:00:02.097Z,76.40
2018-02-12T09:02:28.057Z,76.00
2018-02-12T09:04:54.011Z,74.40
2018-02-12T09:07:20.695Z,74.00
2018-02-12T09:09:46.680Z,73.90
2018-02-12T09:12:12.791Z,73.90
2018-02-12T09:14:38.753Z,73.50
2018-02-12T09:17:04.731Z,73.60
2018-02-12T09:19:30.735Z,71.60
2018-02-12T09:21:56.726Z,70.00
2018-02-12T09:24:22.708Z,69.90
2018-02-12T09:26:49.382Z,71.40
2018-02-12T09:29:15.639Z,71.40
2018-02-12T09:31:41.602Z,69.60
2018-02-12T09:34:08.356Z,69.20
2018-02-12T09:36:34.292Z,69.20
2018-02-12T09:39:00.307Z,66.70
2018-02-12T09:41:26.248Z,66.50
2018-02-12T09:43:52.198Z,65.00
2018-02-12T09:46:18.196Z,64.60
2018-02-12T09:48:44.163Z,64.20
2018-02-12T09:51:10.186Z,64.50
2018-02-12T09:53:36.879Z,65.00
2018-02-12T09:56:02.869Z,65.00
2018-02-12T09:58:29.542Z,64.90
2018-02-12T10:00:55.496Z,64.80
2018-02-12T10:03:21.475Z,66.20
2018-02-12T10:05:47.428Z,66.10
2018-02-12T10:08:13.510Z,66.10
2018-02-12T10:10:39.471Z,67.00
2018-02-12T10:13:05.439Z,67.30
2018-02-12T10:15:32.186Z,67.20
2018-02-12T10:17:58.138Z,67.10
2018-02-12T10:20:24.239Z,66.30
2018-02-12T10:22:50.190Z,67.20
2018-02-12T10:25:16.155Z,67.50
2018-02-12T10:27:42.117Z,67.80
2018-02-12T10:30:08.233Z,66.20
2018-02-12T10:32:34.180Z,65.90
2018-02-12T10:35:00.130Z,64.80
2018-02-12T10:37:26.236Z,66.40
2018-02-12T10:39:52.217Z,65.90
2018-02-12T10:42:18.301Z,66.00
2018-02-12T10:44:44.263Z,66.30
2018-02-12T10:47:10.257Z,65.70
2018-02-12T10:49:36.255Z,66.10
2018-02-12T10:52:02.214Z,66.00
2018-02-12T10:54:28.959Z,66.50
2018-02-12T10:56:55.649Z,66.80
2018-02-12T10:59:21.751Z,66.90
2018-02-12T11:01:47.695Z,67.00
2018-02-12T11:04:13.683Z,67.50
2018-02-12T11:06:39.646Z,67.10
2018-02-12T11:09:05.739Z,67.60
2018-02-12T11:11:31.717Z,66.90
2018-02-12T11:13:57.684Z,67.00
2018-02-12T11:16:23.620Z,66.00
2018-02-12T11:18:49.578Z,65.70
2018-02-12T11:21:15.587Z,65.90
2018-02-12T11:23:41.515Z,66.00
2018-02-12T11:26:07.468Z,67.00
2018-02-12T11:28:33.734Z,65.10
2018-02-12T11:30:59.703Z,65.30
2018-02-12T11:33:25.636Z,65.30
2018-02-12T11:35:52.368Z,65.90
2018-02-12T11:38:18.476Z,66.60
2018-02-12T11:40:44.407Z,63.80
2018-02-12T11:43:10.496Z,64.90
2018-02-12T11:45:36.441Z,64.50
2018-02-12T11:48:02.412Z,66.10
2018-02-12T11:50:28.383Z,64.10
2018-02-12T11:52:54.359Z,64.10
2018-02-12T11:55:20.306Z,64.90
2018-02-12T11:57:46.314Z,63.80
2018-02-12T12:00:12.272Z,64.40
2018-02-12T12:02:38.243Z,64.40
2018-02-12T12:05:04.176Z,63.50
2018-02-12T12:07:30.247Z,62.50
2018-02-12T12:09:56.194Z,60.90
2018-02-12T12:12:22.919Z,62.10
2018-02-12T12:14:48.863Z,62.10
2018-02-12T12:17:14.857Z,63.80
2018-02-12T12:19:40.848Z,63.00
2018-02-12T12:22:06.799Z,61.60
2018-02-12T12:24:32.884Z,62.30
2018-02-12T12:26:58.875Z,61.70
2018-02-12T12:29:25.708Z,73.00
2018-02-12T12:31:52.384Z,76.10
2018-02-12T12:34:18.337Z,76.10
2018-02-12T12:36:44.467Z,77.70
2018-02-12T12:39:10.435Z,77.60
2018-02-12T12:41:36.521Z,77.50
2018-02-12T12:44:02.463Z,78.00
2018-02-12T12:46:29.312Z,77.50
2018-02-12T12:48:55.990Z,75.40
2018-02-12T12:51:21.970Z,75.50
2018-02-12T12:53:48.637Z,75.10
2018-02-12T12:56:14.571Z,75.10
2018-02-12T12:58:40.547Z,74.20
2018-02-12T13:01:07.250Z,69.40
2018-02-12T13:03:33.369Z,69.40
2018-02-12T13:05:59.331Z,66.70
2018-02-12T13:08:26.075Z,66.60
2018-02-12T13:10:52.769Z,66.10
2018-02-12T13:13:18.722Z,66.20
2018-02-12T13:15:44.808Z,65.90
2018-02-12T13:18:10.747Z,65.60
2018-02-12T13:20:36.731Z,65.00
2018-02-12T13:23:02.698Z,65.20
2018-02-12T13:25:28.734Z,64.20
2018-02-12T13:27:54.700Z,65.30
2018-02-12T13:30:20.653Z,71.20
2018-02-12T13:32:46.775Z,74.00
2018-02-12T13:35:12.741Z,74.30
2018-02-12T13:37:39.594Z,76.90
2018-02-12T13:40:06.284Z,77.00
2018-02-12T13:42:32.220Z,77.00
2018-02-12T13:44:58.224Z,77.40
2018-02-12T13:47:24.324Z,78.50
2018-02-12T13:49:50.302Z,79.70
2018-02-12T13:52:16.244Z,80.40
2018-02-12T13:54:42.389Z,80.30
2018-02-12T13:57:08.344Z,80.50
2018-02-12T13:59:34.292Z,80.00
2018-02-12T14:02:01.036Z,81.40
2018-02-12T14:04:26.973Z,81.30
2018-02-12T14:06:53.686Z,81.50
2018-02-12T14:09:19.622Z,81.50
2018-02-12T14:11:46.470Z,82.10
2018-02-12T14:14:13.168Z,82.30
2018-02-12T14:16:39.179Z,82.30
2018-02-12T14:19:05.128Z,83.00
2018-02-12T14:21:31.219Z,83.20
2018-02-12T14:23:57.159Z,84.30
2018-02-12T14:26:23.125Z,84.90
2018-02-12T14:28:49.841Z,86.30
2018-02-12T14:31:15.784Z,86.30
2018-02-12T14:33:42.481Z,86.80
2018-02-12T14:36:08.452Z,86.80
2018-02-12T14:38:35.292Z,86.10
2018-02-12T14:41:01.962Z,86.00
2018-02-12T14:43:28.079Z,86.00
2018-02-12T14:45:54.050Z,86.10
2018-02-12T14:48:20.040Z,85.60
2018-02-12T14:50:45.988Z,85.20
2018-02-12T14:53:11.995Z,84.60
2018-02-12T14:55:37.935Z,83.50
2018-02-12T14:58:03.877Z,83.50
2018-02-12T15:00:30.607Z,82.60
2018-02-12T15:02:56.728Z,82.60
2018-02-12T15:05:22.711Z,81.40
2018-02-12T15:07:48.656Z,80.40
2018-02-12T15:10:14.647Z,79.50
2018-02-12T15:12:40.586Z,79.10
2018-02-12T15:15:06.568Z,78.90
2018-02-12T15:17:33.267Z,77.90
2018-02-12T15:19:59.383Z,77.90
2018-02-12T15:22:25.329Z,78.10
2018-02-12T15:24:51.302Z,77.40
2018-02-12T15:27:17.297Z,77.00
2018-02-12T15:29:43.996Z,76.70
2018-02-12T15:32:10.024Z,76.60
2018-02-12T15:34:35.978Z,76.50
2018-02-12T15:37:02.856Z,76.00
2018-02-12T15:39:28.803Z,76.10
2018-02-12T15:41:54.772Z,76.50
2018-02-12T15:44:21.488Z,76.90
2018-02-12T15:46:47.432Z,76.90
2018-02-12T15:49:14.160Z,77.20
2018-02-12T15:51:40.854Z,77.20
2018-02-12T15:54:06.961Z,77.00
2018-02-12T15:56:33.667Z,75.50
2018-02-12T15:59:00.380Z,75.70
2018-02-12T16:01:26.332Z,75.70
2018-02-12T16:03:53.181Z,74.90
2018-02-12T16:06:19.900Z,74.30
2018-02-12T16:08:46.659Z,74.30
2018-02-12T16:11:13.379Z,73.70
2018-02-12T16:13:39.343Z,73.70
2018-02-12T16:16:05.324Z,73.10
2018-02-12T16:18:32.019Z,73.00
2018-02-12T16:20:58.152Z,73.00
2018-02-12T16:23:24.126Z,73.20
2018-02-12T16:25:50.886Z,72.80
2018-02-12T16:28:16.839Z,72.90
2018-02-12T16:30:42.819Z,72.80
2018-02-12T16:33:08.803Z,72.60
2018-02-12T16:35:34.755Z,72.40
2018-02-12T16:38:01.042Z,72.70
2018-02-12T16:40:27.020Z,72.80
2018-02-12T16:42:53.036Z,73.10
2018-02-12T16:45:19.000Z,76.10
2018-02-12T16:47:44.950Z,77.40
2018-02-12T16:50:10.971Z,79.00
2018-02-12T16:52:36.920Z,80.10
2018-02-12T16:55:03.800Z,80.70
2018-02-12T16:57:29.776Z,80.80
2018-02-12T16:59:55.919Z,80.20
2018-02-12T17:02:21.870Z,79.90
2018-02-12T17:04:47.877Z,77.80
2018-02-12T17:07:13.883Z,77.40
2018-02-12T17:09:40.588Z,75.80
2018-02-12T17:12:06.717Z,75.80
2018-02-12T17:14:32.669Z,75.50
2018-02-12T17:16:58.752Z,74.90
2018-02-12T17:19:24.712Z,74.60
2018-02-12T17:21:52.022Z,73.40
2018-02-12T17:24:18.621Z,73.30
2018-02-12T17:26:44.629Z,73.40
2018-02-12T17:29:10.812Z,73.10
2018-02-12T17:31:36.774Z,73.20
2018-02-12T17:34:03.663Z,73.00
2018-02-12T17:36:29.660Z,73.00
2018-02-12T17:38:55.829Z,72.60
2018-02-12T17:41:21.865Z,72.50
2018-02-12T17:43:47.859Z,73.00
2018-02-12T17:46:13.868Z,72.40
2018-02-12T17:48:39.866Z,71.80
2018-02-12T17:51:06.815Z,72.10
2018-02-12T17:53:32.833Z,72.00
2018-02-12T17:55:58.855Z,72.20
2018-02-12T17:58:24.880Z,72.50
2018-02-12T18:00:52.157Z,72.40
2018-02-12T18:03:18.504Z,72.40
2018-02-12T18:05:44.928Z,72.50
2018-02-12T18:08:10.926Z,72.70
2018-02-12T18:10:36.959Z,72.70
2018-02-12T18:13:02.976Z,72.60
2018-02-12T18:15:29.358Z,72.80
2018-02-12T18:17:55.459Z,72.70
2018-02-12T18:20:21.450Z,72.50
2018-02-12T18:22:49.130Z,72.40
2018-02-12T18:25:16.449Z,72.80
2018-02-12T18:27:42.473Z,72.50
2018-02-12T18:30:08.624Z,72.70
2018-02-12T18:32:34.652Z,72.80
2018-02-12T18:35:00.797Z,72.90
2018-02-12T18:37:27.007Z,72.60
2018-02-12T18:39:53.164Z,73.00
2018-02-12T18:42:20.203Z,72.90
2018-02-12T18:44:46.529Z,73.20
2018-02-12T18:47:12.538Z,73.00
2018-02-12T18:49:38.504Z,73.30
2018-02-12T18:52:04.511Z,73.50
2018-02-12T18:54:30.754Z,73.10
2018-02-12T18:56:57.255Z,73.20
2018-02-12T18:59:24.235Z,73.20
2018-02-12T19:01:51.523Z,73.10
2018-02-12T19:04:17.562Z,73.00
2018-02-12T19:06:43.529Z,72.90
2018-02-12T19:09:16.890Z,73.00
2018-02-12T19:11:42.936Z,73.00
2018-02-12T19:14:09.066Z,73.20
2018-02-12T19:16:35.087Z,73.10
2018-02-12T19:19:01.332Z,73.00
2018-02-12T19:21:27.333Z,73.10
2018-02-12T19:23:53.305Z,72.60
2018-02-12T19:26:19.306Z,72.90
2018-02-12T19:28:45.407Z,72.30
2018-02-12T19:31:11.445Z,73.00
2018-02-12T19:33:37.427Z,72.60
2018-02-12T19:36:03.404Z,72.50
2018-02-12T20:23:49.927Z,75.50
2018-02-12T20:26:15.961Z,75.40
2018-02-12T20:28:42.291Z,75.20
2018-02-12T20:31:08.268Z,75.20
2018-02-12T20:33:34.295Z,75.00
2018-02-12T20:36:00.249Z,75.10
2018-02-12T20:38:26.344Z,74.60
2018-02-12T20:40:52.308Z,74.30
2018-02-12T20:43:18.284Z,73.90
2018-02-12T20:45:44.284Z,73.60
2018-02-12T20:48:10.359Z,73.80
2018-02-12T20:50:37.063Z,72.50
2018-02-12T20:53:03.111Z,72.40
2018-02-12T20:55:29.831Z,72.10
2018-02-12T20:57:56.000Z,72.10
2018-02-12T21:00:21.984Z,71.70
2018-02-12T21:02:48.012Z,71.40
2018-02-12T21:05:14.138Z,71.00
2018-02-12T21:07:40.879Z,70.50
2018-02-12T21:10:06.872Z,70.40
2018-02-12T21:12:32.844Z,70.40
2018-02-12T21:14:59.585Z,70.20
2018-02-12T21:17:26.289Z,70.70
2018-02-12T21:19:52.398Z,70.70
2018-02-12T21:22:18.365Z,70.70
2018-02-12T21:24:45.049Z,71.10
2018-02-12T21:27:11.031Z,71.10
2018-02-12T21:29:37.751Z,70.90
2018-02-12T21:32:03.748Z,70.70
2018-02-12T21:34:29.704Z,70.50
2018-02-12T21:36:55.861Z,70.20
2018-02-12T21:39:21.789Z,70.80
2018-02-12T21:41:47.785Z,71.40
2018-02-12T21:44:14.476Z,71.60
2018-02-12T21:46:40.604Z,71.50
2018-02-12T21:49:06.578Z,71.60
2018-02-12T21:51:33.331Z,71.80
2018-02-12T21:53:59.328Z,71.70
2018-02-12T21:56:26.025Z,71.90
2018-02-12T21:58:52.067Z,71.90
2018-02-12T22:01:18.057Z,72.00
2018-02-12T22:03:44.201Z,72.30
2018-02-12T22:06:10.155Z,72.10
2018-02-12T22:08:36.174Z,72.10
2018-02-12T22:11:02.168Z,71.70
2018-02-12T22:13:28.102Z,71.90
2018-02-12T22:15:54.074Z,71.90
2018-02-12T22:18:20.020Z,71.80
2018-02-12T22:20:46.128Z,71.30
2018-02-12T22:23:12.098Z,71.20
2018-02-12T22:25:38.102Z,71.30
2018-02-12T22:28:04.058Z,71.30
2018-02-12T22:30:30.012Z,71.50
2018-02-12T22:32:56.013Z,71.30
2018-02-12T22:35:22.713Z,71.30
2018-02-12T22:37:49.018Z,71.40
2018-02-12T22:40:15.671Z,71.70
2018-02-12T22:42:41.643Z,71.70
2018-02-12T22:45:08.323Z,71.80
2018-02-12T22:47:34.285Z,71.80
2018-02-12T22:50:00.328Z,71.60
2018-02-12T22:52:26.252Z,71.60
2018-02-12T22:54:52.989Z,72.00
2018-02-12T22:57:19.717Z,72.30
2018-02-12T22:59:45.715Z,72.30
2018-02-12T23:02:11.641Z,72.90
2018-02-12T23:04:37.585Z,72.50
2018-02-12T23:07:04.321Z,72.40
2018-02-12T23:09:30.243Z,72.40
2018-02-12T23:11:57.076Z,72.60
2018-02-12T23:14:22.994Z,72.60
2018-02-12T23:16:48.963Z,72.20
2018-02-12T23:19:14.960Z,72.50
2018-02-12T23:21:41.654Z,72.70
2018-02-12T23:24:07.629Z,72.70
2018-02-12T23:26:33.624Z,73.10
2018-02-12T23:28:59.569Z,72.80
2018-02-12T23:31:26.288Z,73.30
2018-02-12T23:33:52.380Z,73.20
2018-02-12T23:36:18.308Z,73.40
2018-02-12T23:38:44.410Z,73.50
2018-02-12T23:41:10.344Z,73.60
2018-02-12T23:43:36.416Z,73.20
2018-02-12T23:46:02.357Z,73.20
2018-02-12T23:48:28.352Z,73.20
2018-02-12T23:50:54.304Z,73.00
2018-02-12T23:53:20.279Z,73.20
2018-02-12T23:55:46.367Z,73.30
2018-02-12T23:58:12.310Z,73.40
